Weather History for Mount Pleasant, IA

Change the Weather History Date:

Tuesday, April 24, 2012

  Actual Average Record
Temperature  
Mean Temperature 60 °F -  
Max Temperature 78 °F 65 °F 85 °F (1954)
Min Temperature 42 °F 41 °F 20 °F (1956)
Degree Days  
Heating Degree Days 6    
Growing Degree Days 10 (Base 50)    
Moisture  
Dew Point 43 °F    
Average Humidity 57    
Maximum Humidity 82    
Minimum Humidity 32    
Precipitation  
Precipitation 0.00 in - - ()
Sea Level Pressure  
Sea Level Pressure 29.73 in    
Wind  
Wind Speed 6 mph (SSW)    
Max Wind Speed 12 mph    
Max Gust Speed 21 mph    
Visibility 10 miles    
Events      
Averages and records for this station are not official NWS values.
T = Trace of Precipitation, MM = Missing Value Source: NWS Daily Summary

Daily Weather History Graph

Daily Weather History Graph

Search for Another Location

Airport:

Trip Planner

Search our weather history database for the weather conditions in past years. The results will help you decide how hot, cold, wet, or windy it might be!

Date:

Astronomy

Apr. 24, 2012 Rise Set
Actual Time 6:12 AM CDT 7:55 PM CDT
Civil Twilight 5:43 AM CDT 8:25 PM CDT
Nautical Twilight 5:08 AM CDT 9:00 PM CDT
Astronomical Twilight 4:30 AM CDT 9:38 PM CDT
Moon 8:07 AM CDT (4/24) 11:17 PM CDT (4/24)
Length of Visible Light 14h 41m
Length of Day
13h 42m
Waxing Crescent, 10% of the Moon is Illuminated
Apr 24
Waxing Crescent
Apr 29
First Quarter
May 5
Full
May 12
Last Quarter
May 20
New

Hourly Weather History & Observations

Time (CDT) Temp. Windchill Dew Point Humidity Pressure Visibility Wind Dir Wind Speed Gust Speed Precip Events Conditions
12:15 AM 45.1 °F 42.0 °F 36.1 °F 71% 29.90 in 10.0 mi West 5.8 mph - N/A   Clear
12:35 AM 44.8 °F 41.0 °F 36.1 °F 72% 29.90 in 10.0 mi WSW 6.9 mph - N/A   Clear
12:55 AM 44.2 °F 41.0 °F 36.0 °F 73% 29.89 in 10.0 mi WSW 5.8 mph - N/A   Clear
1:15 AM 43.5 °F 40.1 °F 35.6 °F 74% 29.89 in 10.0 mi WSW 5.8 mph - N/A   Clear
1:35 AM 42.3 °F 38.6 °F 35.6 °F 77% 29.88 in 10.0 mi WSW 5.8 mph - N/A   Clear
1:55 AM 42.8 °F 39.3 °F 35.6 °F 76% 29.87 in 10.0 mi WSW 5.8 mph - N/A   Clear
2:15 AM 42.3 °F 39.4 °F 35.2 °F 76% 29.87 in 10.0 mi WSW 4.6 mph - N/A   Scattered Clouds
2:35 AM 42.3 °F 40.5 °F 35.6 °F 77% 29.87 in 10.0 mi WSW 3.5 mph - N/A   Scattered Clouds
2:55 AM 42.1 °F - 35.6 °F 78% 29.86 in 10.0 mi Calm Calm - N/A   Scattered Clouds
3:15 AM 42.3 °F - 35.6 °F 77% 29.86 in 10.0 mi Calm Calm - N/A   Mostly Cloudy
3:35 AM 42.6 °F 39.9 °F 36.5 °F 79% 29.86 in 10.0 mi WSW 4.6 mph - N/A   Overcast
4:15 AM 43.2 °F 41.5 °F 37.0 °F 79% 29.86 in 10.0 mi WSW 3.5 mph - N/A   Mostly Cloudy
4:35 AM 43.0 °F 40.3 °F 37.6 °F 81% 29.86 in 10.0 mi WSW 4.6 mph - N/A   Mostly Cloudy
4:55 AM 43.9 °F 41.3 °F 37.9 °F 80% 29.85 in 10.0 mi SW 4.6 mph - N/A   Overcast
5:15 AM 43.9 °F 40.5 °F 38.7 °F 82% 29.85 in 10.0 mi SW 5.8 mph - N/A   Overcast
5:35 AM 44.6 °F 42.2 °F 38.3 °F 79% 29.85 in 10.0 mi SW 4.6 mph - N/A   Mostly Cloudy
5:55 AM 43.9 °F 40.5 °F 37.9 °F 80% 29.85 in 10.0 mi SW 5.8 mph - N/A   Scattered Clouds
6:15 AM 43.2 °F 39.7 °F 37.8 °F 81% 29.84 in 10.0 mi SW 5.8 mph - N/A   Clear
6:35 AM 43.3 °F 39.9 °F 38.3 °F 82% 29.83 in 10.0 mi SW 5.8 mph - N/A   Clear
6:55 AM 43.9 °F 40.5 °F 38.5 °F 81% 29.83 in 10.0 mi SW 5.8 mph - N/A   Clear
7:15 AM 45.0 °F 41.8 °F 38.8 °F 79% 29.83 in 10.0 mi SW 5.8 mph - N/A   Clear
7:35 AM 48.2 °F - 39.6 °F 72% 29.81 in 10.0 mi SW 6.9 mph - N/A   Clear
7:55 AM 49.5 °F - 39.2 °F 68% 29.81 in 10.0 mi SW 8.1 mph - N/A   Clear
8:15 AM 53.2 °F - 38.5 °F 57% 29.81 in 10.0 mi SW 8.1 mph - N/A   Clear
8:35 AM 53.8 °F - 37.4 °F 54% 29.81 in 10.0 mi SW 9.2 mph - N/A   Clear
8:55 AM 55.4 °F - 37.8 °F 52% 29.80 in 10.0 mi SW 9.2 mph - N/A   Clear
9:15 AM 56.7 °F - 38.1 °F 50% 29.80 in 10.0 mi SSW 8.1 mph - N/A   Clear
9:35 AM 59.5 °F - 39.0 °F 47% 29.79 in 10.0 mi SSW 9.2 mph - N/A   Clear
9:55 AM 61.5 °F - 39.9 °F 45% 29.78 in 10.0 mi SSW 9.2 mph - N/A   Clear
10:15 AM 63.1 °F - 40.3 °F 43% 29.77 in 10.0 mi SW 6.9 mph - N/A   Scattered Clouds
10:35 AM 64.4 °F - 40.3 °F 41% 29.76 in 10.0 mi SSW 10.4 mph - N/A   Clear
10:55 AM 64.4 °F - 41.2 °F 43% 29.75 in 10.0 mi South 9.2 mph - N/A   Mostly Cloudy
11:15 AM 65.5 °F - 41.5 °F 42% 29.75 in 10.0 mi SSE 5.8 mph - N/A   Scattered Clouds
11:35 AM 65.3 °F - 42.1 °F 43% 29.73 in 10.0 mi South 6.9 mph - N/A   Scattered Clouds
11:55 AM 66.9 °F - 43.5 °F 43% 29.72 in 10.0 mi SSE 8.1 mph - N/A   Scattered Clouds
12:15 PM 65.8 °F - 44.1 °F 45% 29.70 in 10.0 mi SSE 10.4 mph - N/A   Mostly Cloudy
12:35 PM 70.7 °F - 45.3 °F 40% 29.70 in 10.0 mi SE 6.9 mph - N/A   Scattered Clouds
12:55 PM 69.1 °F - 44.4 °F 41% 29.70 in 10.0 mi East 8.1 mph - N/A   Scattered Clouds
1:15 PM 68.9 °F - 44.6 °F 42% 29.69 in 10.0 mi ESE 8.1 mph - N/A   Scattered Clouds
1:35 PM 70.3 °F - 45.3 °F 41% 29.68 in 10.0 mi SE 8.1 mph - N/A   Scattered Clouds
1:55 PM 72.5 °F - 45.3 °F 38% 29.67 in 10.0 mi SSE 10.4 mph 16.1 mph N/A   Scattered Clouds
2:15 PM 74.3 °F - 46.2 °F 37% 29.66 in 10.0 mi ESE 10.4 mph - N/A   Clear
2:35 PM 74.5 °F - 46.2 °F 37% 29.65 in 10.0 mi SE 9.2 mph 16.1 mph N/A   Clear
2:55 PM 74.8 °F - 45.7 °F 35% 29.65 in 10.0 mi SE 10.4 mph - N/A   Clear
3:15 PM 75.9 °F - 45.0 °F 33% 29.64 in 10.0 mi SSE 11.5 mph - N/A   Clear
3:35 PM 77.0 °F - 45.3 °F 32% 29.63 in 10.0 mi SSE 10.4 mph 16.1 mph N/A   Clear
3:55 PM 77.2 °F - 45.0 °F 32% 29.62 in 10.0 mi SSE 11.5 mph 20.7 mph N/A   Clear
4:15 PM 77.5 °F - 46.0 °F 33% 29.62 in 10.0 mi South 9.2 mph - N/A   Clear
4:35 PM 77.7 °F - 46.0 °F 33% 29.61 in 10.0 mi South 11.5 mph 16.1 mph N/A   Clear
4:55 PM 77.7 °F - 45.9 °F 32% 29.61 in 10.0 mi SW 9.2 mph - N/A   Clear
5:15 PM 77.9 °F - 46.2 °F 33% 29.61 in 10.0 mi SSW 9.2 mph - N/A   Clear
5:35 PM 77.7 °F - 46.2 °F 33% 29.60 in 10.0 mi SSW 10.4 mph - N/A   Clear
5:55 PM 77.5 °F - 46.2 °F 33% 29.60 in 10.0 mi SSW 10.4 mph - N/A   Clear
6:15 PM 77.0 °F - 46.2 °F 34% 29.60 in 10.0 mi SW 10.4 mph - N/A   Clear
6:35 PM 76.3 °F - 47.5 °F 36% 29.60 in 10.0 mi SW 10.4 mph - N/A   Clear
6:55 PM 75.2 °F - 49.1 °F 40% 29.59 in 10.0 mi SSW 8.1 mph - N/A   Clear
7:35 PM 71.4 °F - 50.4 °F 47% 29.59 in 10.0 mi SW 3.5 mph - N/A   Clear
7:55 PM 69.8 °F - 50.4 °F 50% 29.59 in 10.0 mi Calm Calm - N/A   Clear
8:15 PM 67.3 °F - 50.0 °F 54% 29.60 in 10.0 mi SSE 3.5 mph - N/A   Clear
8:35 PM 66.7 °F - 49.6 °F 54% 29.60 in 10.0 mi South 3.5 mph - N/A   Clear
8:55 PM 64.8 °F - 50.0 °F 59% 29.61 in 10.0 mi South 3.5 mph - N/A   Clear
9:15 PM 64.0 °F - 49.5 °F 59% 29.61 in 10.0 mi SSE 4.6 mph - N/A   Clear
9:35 PM 61.7 °F - 49.1 °F 63% 29.61 in 10.0 mi SSE 5.8 mph - N/A   Clear
9:55 PM 61.7 °F - 49.1 °F 63% 29.61 in 10.0 mi SSE 5.8 mph - N/A   Clear
10:15 PM 59.4 °F - 49.1 °F 69% 29.61 in 10.0 mi SSE 6.9 mph - N/A   Clear
10:35 PM 59.9 °F - 49.3 °F 68% 29.61 in 10.0 mi South 3.5 mph - N/A   Clear
10:55 PM 59.2 °F - 49.8 °F 71% 29.61 in 10.0 mi SSE 4.6 mph - N/A   Clear
11:15 PM 58.5 °F - 49.3 °F 72% 29.61 in 10.0 mi NNE 5.8 mph - N/A   Clear
11:35 PM 57.0 °F - 48.2 °F 72% 29.61 in 10.0 mi ENE 8.1 mph - N/A   Clear
11:55 PM 55.4 °F - 47.7 °F 75% 29.62 in 10.0 mi ENE 6.9 mph - N/A   Clear